Time;durP1;ratioP1;P1;durP2;ratioP2;P2;SDS_P1;SDS_P2;PMS_P1;PMS_P2;Temp;Humidity;BMP_temperature;BMP_pressure;BME280_temperature;BME280_humidity;BME280_pressure;Samples;Min_cycle;Max_cycle;Signal;HPM_P1;HPM_P2
2022/12/06 00:00:59;;;;;;;;;;;;;;;;;;5075537;28;20303;-70
2022/12/06 00:03:25;;;;;;;;;;;;;;;;;;5075150;28;19908;-70
2022/12/06 00:05:51;;;;;;;;;;;;;;;;;;5075149;28;20007;-70
2022/12/06 00:08:17;;;;;;;;;;;;;;;;;;5057256;28;20273;-70
2022/12/06 00:10:43;;;;;;;;;;;;;;;;;;5074715;28;20052;-70
2022/12/06 00:13:09;;;;;;;;;;;;;;;;;;5075123;28;19908;-70
2022/12/06 00:15:36;;;;;;;;;;;;;;;;;;5075416;28;19934;-70
2022/12/06 00:18:02;;;;;;;;;;;;;;;;;;5074562;28;20283;-69
2022/12/06 00:20:28;;;;;;;;;;;;;;;;;;5074939;28;19908;-69
2022/12/06 00:22:54;;;;;;;;;;;;;;;;;;5074851;28;19912;-69
2022/12/06 00:25:20;;;;;;;;;;;;;;;;;;5074482;28;19909;-69
2022/12/06 00:27:46;;;;;;;;;;;;;;;;;;5075106;28;20369;-69
2022/12/06 00:30:12;;;;;;;;;;;;;;;;;;5073901;28;20339;-69
2022/12/06 00:32:38;;;;;;;;;;;;;;;;;;5074273;28;20009;-70
2022/12/06 00:35:04;;;;;;;;;;;;;;;;;;5074660;28;19962;-69
2022/12/06 00:37:30;;;;;;;;;;;;;;;;;;5075040;28;20004;-70
2022/12/06 00:39:56;;;;;;;;;;;;;;;;;;5056219;28;19908;-70
2022/12/06 00:42:22;;;;;;;;;;;;;;;;;;5074800;28;19913;-70
2022/12/06 00:44:48;;;;;;;;;;;;;;;;;;5074527;28;20377;-70
2022/12/06 00:47:14;;;;;;;;;;;;;;;;;;5055840;28;20369;-70
2022/12/06 00:49:40;;;;;;;;;;;;;;;;;;5074425;28;19951;-70
2022/12/06 00:52:05;;;;;;;;;;;;;;;;;;5074345;28;19909;-70
2022/12/06 00:54:31;;;;;;;;;;;;;;;;;;5073928;28;20387;-70
2022/12/06 00:56:57;;;;;;;;;;;;;;;;;;5074449;28;20262;-70
2022/12/06 00:59:23;;;;;;;;;;;;;;;;;;5074122;28;19912;-70
2022/12/06 01:01:49;;;;;;;;;;;;;;;;;;5074221;28;19908;-70
2022/12/06 01:04:15;;;;;;;;;;;;;;;;;;5074187;28;20276;-70
2022/12/06 01:06:41;;;;;;;;;;;;;;;;;;5055645;28;20002;-70
2022/12/06 01:09:07;;;;;;;;;;;;;;;;;;5074044;28;20014;-69
2022/12/06 01:11:33;;;;;;;;;;;;;;;;;;5056182;28;19919;-69
2022/12/06 01:13:59;;;;;;;;;;;;;;;;;;5073505;28;20296;-69
2022/12/06 01:16:25;;;;;;;;;;;;;;;;;;5056050;28;19915;-69
2022/12/06 01:18:51;;;;;;;;;;;;;;;;;;5055925;28;19908;-69
2022/12/06 01:21:17;;;;;;;;;;;;;;;;;;5073495;28;20007;-70
2022/12/06 01:23:43;;;;;;;;;;;;;;;;;;5055969;28;20400;-70
2022/12/06 01:26:09;;;;;;;;;;;;;;;;;;5073701;28;20269;-70
2022/12/06 01:28:35;;;;;;;;;;;;;;;;;;5073352;28;20038;-69
2022/12/06 01:31:01;;;;;;;;;;;;;;;;;;5055788;28;19909;-69
2022/12/06 01:33:27;;;;;;;;;;;;;;;;;;5073690;28;19944;-69
2022/12/06 01:35:53;;;;;;;;;;;;;;;;;;5073429;28;20434;-70
2022/12/06 01:38:19;;;;;;;;;;;;;;;;;;5073700;28;20280;-70
2022/12/06 01:40:44;;;;;;;;;;;;;;;;;;5073494;28;19908;-69
2022/12/06 01:43:10;;;;;;;;;;;;;;;;;;5073295;28;19915;-69
2022/12/06 01:45:36;;;;;;;;;;;;;;;;;;5073295;28;19927;-69
2022/12/06 01:48:02;;;;;;;;;;;;;;;;;;5073899;28;19908;-69
2022/12/06 01:50:28;;;;;;;;;;;;;;;;;;5073249;28;19908;-69
2022/12/06 01:52:54;;;;;;;;;;;;;;;;;;5073499;28;20350;-69
2022/12/06 01:55:20;;;;;;;;;;;;;;;;;;5073775;28;19921;-70
2022/12/06 01:57:46;;;;;;;;;;;;;;;;;;5055119;28;19916;-69
2022/12/06 02:00:12;;;;;;;;;;;;;;;;;;5073545;28;20272;-69
2022/12/06 02:02:38;;;;;;;;;;;;;;;;;;5073081;28;20400;-70
2022/12/06 02:05:04;;;;;;;;;;;;;;;;;;5073371;28;19909;-69
2022/12/06 02:07:30;;;;;;;;;;;;;;;;;;5073431;28;19920;-70
2022/12/06 02:09:56;;;;;;;;;;;;;;;;;;5072994;28;19949;-70
2022/12/06 02:12:22;;;;;;;;;;;;;;;;;;5055400;28;19909;-69
2022/12/06 02:14:48;;;;;;;;;;;;;;;;;;5073678;28;19962;-69
2022/12/06 02:17:14;;;;;;;;;;;;;;;;;;5072889;28;19909;-69
2022/12/06 02:19:39;;;;;;;;;;;;;;;;;;5073282;28;20444;-69
2022/12/06 02:22:05;;;;;;;;;;;;;;;;;;5073261;28;19986;-70
2022/12/06 02:24:31;;;;;;;;;;;;;;;;;;5072838;28;19908;-69
2022/12/06 02:26:57;;;;;;;;;;;;;;;;;;5055187;28;19916;-70
2022/12/06 02:29:23;;;;;;;;;;;;;;;;;;5073157;28;19958;-69
2022/12/06 02:31:49;;;;;;;;;;;;;;;;;;5073166;28;20012;-69
2022/12/06 02:34:15;;;;;;;;;;;;;;;;;;5073333;28;19912;-70
2022/12/06 02:36:41;;;;;;;;;;;;;;;;;;5073126;28;20022;-70
2022/12/06 02:39:07;;;;;;;;;;;;;;;;;;5072724;28;19951;-70
2022/12/06 02:41:33;;;;;;;;;;;;;;;;;;5073076;28;20387;-69
2022/12/06 02:43:59;;;;;;;;;;;;;;;;;;5073064;28;20325;-69
2022/12/06 02:46:28;;;;;;;;;;;;;;;;;;5054389;28;19920;-70
2022/12/06 02:48:54;;;;;;;;;;;;;;;;;;5073067;28;19908;-70
2022/12/06 02:51:20;;;;;;;;;;;;;;;;;;5072988;28;19908;-70
2022/12/06 02:53:46;;;;;;;;;;;;;;;;;;5073989;28;19908;-69
2022/12/06 02:56:12;;;;;;;;;;;;;;;;;;5076576;28;19916;-69
2022/12/06 02:58:38;;;;;;;;;;;;;;;;;;5076519;28;19943;-69
2022/12/06 03:01:04;;;;;;;;;;;;;;;;;;5076075;28;19966;-70
2022/12/06 03:03:30;;;;;;;;;;;;;;;;;;5076569;28;19915;-69
2022/12/06 03:05:56;;;;;;;;;;;;;;;;;;5076434;28;19970;-70
2022/12/06 03:08:22;;;;;;;;;;;;;;;;;;5076321;28;20265;-70
2022/12/06 03:10:47;;;;;;;;;;;;;;;;;;5076285;28;19908;-70
2022/12/06 03:13:13;;;;;;;;;;;;;;;;;;5057896;28;19924;-69
2022/12/06 03:15:39;;;;;;;;;;;;;;;;;;5058249;28;19908;-69
2022/12/06 03:18:05;;;;;;;;;;;;;;;;;;5076558;28;19908;-69
2022/12/06 03:20:31;;;;;;;;;;;;;;;;;;5075698;28;19908;-69
2022/12/06 03:22:57;;;;;;;;;;;;;;;;;;5076064;28;19932;-69
2022/12/06 03:25:23;;;;;;;;;;;;;;;;;;5076009;28;19948;-70
2022/12/06 03:27:49;;;;;;;;;;;;;;;;;;5057636;28;19920;-69
2022/12/06 03:30:15;;;;;;;;;;;;;;;;;;5075983;28;19938;-70
2022/12/06 03:32:41;;;;;;;;;;;;;;;;;;5075913;28;19912;-69
2022/12/06 03:35:07;;;;;;;;;;;;;;;;;;5075604;28;19985;-69
2022/12/06 03:37:33;;;;;;;;;;;;;;;;;;5075867;28;19913;-69
2022/12/06 03:39:59;;;;;;;;;;;;;;;;;;5075828;28;19916;-69
2022/12/06 03:42:25;;;;;;;;;;;;;;;;;;5075352;28;19908;-69
2022/12/06 03:44:51;;;;;;;;;;;;;;;;;;5057716;28;19908;-69
2022/12/06 03:47:16;;;;;;;;;;;;;;;;;;5075424;28;19927;-69
2022/12/06 03:49:42;;;;;;;;;;;;;;;;;;5057283;28;19909;-69
2022/12/06 03:52:08;;;;;;;;;;;;;;;;;;5075540;28;19909;-69
2022/12/06 03:54:34;;;;;;;;;;;;;;;;;;5075497;28;20387;-69
2022/12/06 03:57:00;;;;;;;;;;;;;;;;;;5075146;28;20257;-69
2022/12/06 03:59:26;;;;;;;;;;;;;;;;;;5075335;28;19908;-69
2022/12/06 04:01:52;;;;;;;;;;;;;;;;;;5075483;28;19951;-69
2022/12/06 04:04:18;;;;;;;;;;;;;;;;;;5074874;28;19909;-69
2022/12/06 04:06:44;;;;;;;;;;;;;;;;;;5075671;28;19922;-69
2022/12/06 04:11:55;;;;;;;;;;;;;;;;;;5075214;28;19915;-69
2022/12/06 04:14:21;;;;;;;;;;;;;;;;;;5075071;28;19909;-69
2022/12/06 04:19:31;;;;;;;;;;;;;;;;;;5075092;28;19915;-69
2022/12/06 04:24:42;;;;;;;;;;;;;;;;;;5074632;28;19950;-69
2022/12/06 04:40:51;;;;;;;;;;;;;;;;;;5074620;28;19916;-70
2022/12/06 04:46:02;;;;;;;;;;;;;;;;;;5005259;28;19927;-69
2022/12/06 04:48:27;;;;;;;;;;;;;;;;;;5074391;28;19912;-69
2022/12/06 04:50:53;;;;;;;;;;;;;;;;;;5074401;28;19935;-70
2022/12/06 04:53:19;;;;;;;;;;;;;;;;;;5056003;28;19965;-70
2022/12/06 04:55:45;;;;;;;;;;;;;;;;;;5074401;28;19913;-69
2022/12/06 04:58:11;;;;;;;;;;;;;;;;;;5074421;28;19909;-69
2022/12/06 05:00:42;;;;;;;;;;;;;;;;;;5073814;28;19913;-70
2022/12/06 05:03:08;;;;;;;;;;;;;;;;;;5074453;28;19930;-70
2022/12/06 05:05:34;;;;;;;;;;;;;;;;;;5073572;28;20356;-70
2022/12/06 05:08:00;;;;;;;;;;;;;;;;;;5074216;28;20012;-70
2022/12/06 05:10:26;;;;;;;;;;;;;;;;;;5074149;28;19956;-70
2022/12/06 05:12:52;;;;;;;;;;;;;;;;;;5073817;28;19915;-70
2022/12/06 05:15:18;;;;;;;;;;;;;;;;;;5074436;28;20364;-70
2022/12/06 05:17:44;;;;;;;;;;;;;;;;;;5073565;28;20214;-70
2022/12/06 05:20:09;;;;;;;;;;;;;;;;;;5073486;28;19912;-70
2022/12/06 05:22:35;;;;;;;;;;;;;;;;;;5073745;28;19916;-70
2022/12/06 05:25:01;;;;;;;;;;;;;;;;;;5055985;28;19916;-70
2022/12/06 05:27:27;;;;;;;;;;;;;;;;;;5073424;28;19948;-70
2022/12/06 05:29:53;;;;;;;;;;;;;;;;;;5073818;28;19995;-71
2022/12/06 05:32:19;;;;;;;;;;;;;;;;;;5073986;28;20348;-69
2022/12/06 05:34:45;;;;;;;;;;;;;;;;;;5073289;28;19998;-71
2022/12/06 05:37:11;;;;;;;;;;;;;;;;;;5073670;28;20298;-69
2022/12/06 05:39:37;;;;;;;;;;;;;;;;;;5073714;28;19952;-71
2022/12/06 05:42:03;;;;;;;;;;;;;;;;;;5073244;28;19913;-69
2022/12/06 05:44:29;;;;;;;;;;;;;;;;;;5073576;28;19980;-69
2022/12/06 05:46:55;;;;;;;;;;;;;;;;;;5073466;28;19921;-71
2022/12/06 05:49:21;;;;;;;;;;;;;;;;;;5073212;28;19909;-69
2022/12/06 05:51:47;;;;;;;;;;;;;;;;;;5055585;28;19939;-69
2022/12/06 05:54:13;;;;;;;;;;;;;;;;;;5073652;28;19912;-69
2022/12/06 05:56:39;;;;;;;;;;;;;;;;;;5073081;28;19915;-69
2022/12/06 05:59:05;;;;;;;;;;;;;;;;;;5073391;28;19916;-69
2022/12/06 06:01:31;;;;;;;;;;;;;;;;;;5073685;28;19908;-70
2022/12/06 06:03:57;;;;;;;;;;;;;;;;;;5072991;28;19908;-70
2022/12/06 06:06:22;;;;;;;;;;;;;;;;;;5073396;28;20357;-70
2022/12/06 06:08:48;;;;;;;;;;;;;;;;;;5072987;28;19944;-70
2022/12/06 06:11:14;;;;;;;;;;;;;;;;;;5073293;28;19915;-70
2022/12/06 06:13:41;;;;;;;;;;;;;;;;;;5073033;28;19909;-71
2022/12/06 06:16:07;;;;;;;;;;;;;;;;;;5072849;28;19913;-70
2022/12/06 06:18:32;;;;;;;;;;;;;;;;;;5073194;28;19977;-70
2022/12/06 06:20:58;;;;;;;;;;;;;;;;;;5075380;28;19965;-71
2022/12/06 06:23:24;;;;;;;;;;;;;;;;;;5091976;28;20366;-75
2022/12/06 06:25:50;;;;;;;;;;;;;;;;;;5091458;28;20332;-75
2022/12/06 06:28:16;;;;;;;;;;;;;;;;;;5073880;28;19912;-74
2022/12/06 06:30:42;;;;;;;;;;;;;;;;;;5095099;28;20045;-75
2022/12/06 06:33:08;;;;;;;;;;;;;;;;;;5092486;28;20005;-73
2022/12/06 06:35:34;;;;;;;;;;;;;;;;;;5083300;28;19912;-76
2022/12/06 06:38:00;;;;;;;;;;;;;;;;;;5089762;28;20242;-69
2022/12/06 06:40:26;;;;;;;;;;;;;;;;;;5076622;28;19916;-69
2022/12/06 06:42:52;;;;;;;;;;;;;;;;;;5089216;28;19912;-70
2022/12/06 06:45:18;;;;;;;;;;;;;;;;;;5092342;28;19965;-69
2022/12/06 06:47:44;;;;;;;;;;;;;;;;;;5094972;28;19916;-69
2022/12/06 06:50:10;;;;;;;;;;;;;;;;;;5095481;28;19981;-70
2022/12/06 06:52:36;;;;;;;;;;;;;;;;;;5094900;28;20330;-71
2022/12/06 06:55:02;;;;;;;;;;;;;;;;;;5084372;28;19965;-72
2022/12/06 06:57:28;;;;;;;;;;;;;;;;;;5086263;28;19908;-70
2022/12/06 06:59:55;;;;;;;;;;;;;;;;;;5094592;28;19978;-70
2022/12/06 07:02:21;;;;;;;;;;;;;;;;;;5095673;28;20288;-71
2022/12/06 07:04:48;;;;;;;;;;;;;;;;;;5095797;28;19915;-71
2022/12/06 07:07:14;;;;;;;;;;;;;;;;;;5077192;28;19920;-70
2022/12/06 07:09:40;;;;;;;;;;;;;;;;;;5095743;28;20448;-72
2022/12/06 07:12:06;;;;;;;;;;;;;;;;;;5090553;28;19916;-69
2022/12/06 07:14:32;;;;;;;;;;;;;;;;;;5074257;28;19984;-69
2022/12/06 07:16:58;;;;;;;;;;;;;;;;;;5068285;28;19932;-70
2022/12/06 07:19:24;;;;;;;;;;;;;;;;;;5093454;28;19919;-68
2022/12/06 07:21:50;;;;;;;;;;;;;;;;;;5085653;28;19912;-69
2022/12/06 07:24:16;;;;;;;;;;;;;;;;;;5095412;28;20006;-70
2022/12/06 07:26:42;;;;;;;;;;;;;;;;;;5094996;28;19912;-71
2022/12/06 07:29:08;;;;;;;;;;;;;;;;;;5095133;28;20371;-70
2022/12/06 07:31:34;;;;;;;;;;;;;;;;;;5095063;28;19908;-70
2022/12/06 07:34:00;;;;;;;;;;;;;;;;;;5094504;28;19908;-71
2022/12/06 07:36:26;;;;;;;;;;;;;;;;;;5091032;28;19913;-71
2022/12/06 07:38:52;;;;;;;;;;;;;;;;;;5094864;28;19908;-71
2022/12/06 07:46:48;;;;;;;;;;;;;;;;;;5094567;28;19927;-72
2022/12/06 07:49:14;;;;;;;;;;;;;;;;;;5094077;28;20315;-71
2022/12/06 07:51:40;;;;;;;;;;;;;;;;;;5094459;28;19908;-69
2022/12/06 07:54:06;;;;;;;;;;;;;;;;;;5094456;28;20439;-70
2022/12/06 07:56:32;;;;;;;;;;;;;;;;;;5094161;28;20002;-70
2022/12/06 07:58:58;;;;;;;;;;;;;;;;;;5075867;28;19930;-70
2022/12/06 08:01:24;;;;;;;;;;;;;;;;;;5092925;28;19961;-72
2022/12/06 08:03:50;;;;;;;;;;;;;;;;;;5092621;28;19909;-71
2022/12/06 08:06:16;;;;;;;;;;;;;;;;;;5091201;28;20505;-68
2022/12/06 08:08:42;;;;;;;;;;;;;;;;;;5092848;28;19915;-71
2022/12/06 08:11:08;;;;;;;;;;;;;;;;;;5090170;28;19909;-70
2022/12/06 08:13:34;;;;;;;;;;;;;;;;;;5089853;28;20331;-70
2022/12/06 08:16:00;;;;;;;;;;;;;;;;;;5088243;28;19908;-69
2022/12/06 08:18:26;;;;;;;;;;;;;;;;;;5089785;28;19955;-69
2022/12/06 08:20:52;;;;;;;;;;;;;;;;;;5088688;28;19909;-69
2022/12/06 08:23:18;;;;;;;;;;;;;;;;;;5088441;28;19977;-70
2022/12/06 08:25:44;;;;;;;;;;;;;;;;;;5065831;28;20332;-70
2022/12/06 08:28:10;;;;;;;;;;;;;;;;;;5072208;28;20427;-70
2022/12/06 08:30:37;;;;;;;;;;;;;;;;;;5073914;28;20002;-69
2022/12/06 08:33:03;;;;;;;;;;;;;;;;;;5092294;28;19912;-71
2022/12/06 08:35:29;;;;;;;;;;;;;;;;;;5091344;28;19912;-71
2022/12/06 08:37:55;;;;;;;;;;;;;;;;;;5090517;28;19920;-70
2022/12/06 08:40:21;;;;;;;;;;;;;;;;;;5088630;28;19912;-68
2022/12/06 08:42:47;;;;;;;;;;;;;;;;;;5090746;28;19916;-72
2022/12/06 08:45:13;;;;;;;;;;;;;;;;;;5077164;28;20073;-67
2022/12/06 08:47:39;;;;;;;;;;;;;;;;;;5090914;28;19928;-69
2022/12/06 08:50:05;;;;;;;;;;;;;;;;;;5092453;28;20391;-67
2022/12/06 08:52:31;;;;;;;;;;;;;;;;;;5082677;28;19919;-72
2022/12/06 08:54:57;;;;;;;;;;;;;;;;;;5091173;28;19912;-69
2022/12/06 08:57:23;;;;;;;;;;;;;;;;;;5091122;28;19916;-68
2022/12/06 08:59:49;;;;;;;;;;;;;;;;;;5090633;28;19908;-69
2022/12/06 09:02:15;;;;;;;;;;;;;;;;;;5074495;28;20280;-69
2022/12/06 09:04:41;;;;;;;;;;;;;;;;;;5073852;28;19915;-71
2022/12/06 09:07:08;;;;;;;;;;;;;;;;;;5088696;28;19916;-71
2022/12/06 09:09:34;;;;;;;;;;;;;;;;;;5091028;28;19951;-70
2022/12/06 09:12:00;;;;;;;;;;;;;;;;;;5072159;28;19948;-72
2022/12/06 09:14:26;;;;;;;;;;;;;;;;;;5089245;28;19908;-72
2022/12/06 09:16:51;;;;;;;;;;;;;;;;;;5090616;28;19919;-69
2022/12/06 09:19:17;;;;;;;;;;;;;;;;;;5091305;28;19912;-72
2022/12/06 09:21:45;;;;;;;;;;;;;;;;;;5091771;28;20360;-72
2022/12/06 09:24:11;;;;;;;;;;;;;;;;;;5091105;28;19915;-74
2022/12/06 09:26:37;;;;;;;;;;;;;;;;;;5070706;28;19958;-72
2022/12/06 09:29:03;;;;;;;;;;;;;;;;;;5088445;28;19959;-70
2022/12/06 09:31:29;;;;;;;;;;;;;;;;;;5070968;28;19911;-71
2022/12/06 09:33:55;;;;;;;;;;;;;;;;;;5070305;28;19924;-70
2022/12/06 09:36:21;;;;;;;;;;;;;;;;;;5091595;28;20327;-71
2022/12/06 09:38:48;;;;;;;;;;;;;;;;;;5092040;28;19915;-68
2022/12/06 09:41:13;;;;;;;;;;;;;;;;;;5092331;28;19958;-70
2022/12/06 09:43:39;;;;;;;;;;;;;;;;;;5090826;28;19974;-69
2022/12/06 09:46:06;;;;;;;;;;;;;;;;;;5091085;28;19927;-70
2022/12/06 09:48:33;;;;;;;;;;;;;;;;;;5088332;28;20057;-70
2022/12/06 09:51:04;;;;;;;;;;;;;;;;;;5074561;28;20368;-70
2022/12/06 09:53:30;;;;;;;;;;;;;;;;;;5066188;28;19916;-68
2022/12/06 09:55:56;;;;;;;;;;;;;;;;;;5066796;28;20819;-69
2022/12/06 09:58:22;;;;;;;;;;;;;;;;;;5087143;28;19999;-69
2022/12/06 10:00:48;;;;;;;;;;;;;;;;;;5088881;28;19970;-69
2022/12/06 10:03:14;;;;;;;;;;;;;;;;;;5091539;28;19919;-72
2022/12/06 10:05:40;;;;;;;;;;;;;;;;;;5092706;28;19908;-70
2022/12/06 10:08:08;;;;;;;;;;;;;;;;;;5074485;28;19915;-71
2022/12/06 10:10:34;;;;;;;;;;;;;;;;;;5094324;28;19915;-71
2022/12/06 10:13:00;;;;;;;;;;;;;;;;;;5094339;28;19912;-69
2022/12/06 10:15:27;;;;;;;;;;;;;;;;;;5075893;28;19962;-70
2022/12/06 10:17:52;;;;;;;;;;;;;;;;;;5075651;28;19912;-70
2022/12/06 10:20:18;;;;;;;;;;;;;;;;;;5093612;28;20387;-68
2022/12/06 10:22:44;;;;;;;;;;;;;;;;;;5094932;28;19908;-70
2022/12/06 10:25:10;;;;;;;;;;;;;;;;;;5076955;28;19973;-71
2022/12/06 10:27:36;;;;;;;;;;;;;;;;;;5077143;28;19969;-69
2022/12/06 10:30:02;;;;;;;;;;;;;;;;;;5095525;28;19908;-71
2022/12/06 10:32:28;;;;;;;;;;;;;;;;;;5095548;28;20027;-72
2022/12/06 10:34:55;;;;;;;;;;;;;;;;;;5076750;28;20002;-71
2022/12/06 10:37:20;;;;;;;;;;;;;;;;;;5076918;28;19912;-73
2022/12/06 10:39:46;;;;;;;;;;;;;;;;;;5093783;28;19919;-72
2022/12/06 10:42:12;;;;;;;;;;;;;;;;;;5096169;28;19912;-72
2022/12/06 10:44:38;;;;;;;;;;;;;;;;;;5095725;28;19912;-70
2022/12/06 10:47:05;;;;;;;;;;;;;;;;;;5077430;28;20434;-71
2022/12/06 10:49:31;;;;;;;;;;;;;;;;;;5095396;28;19908;-71
2022/12/06 10:51:57;;;;;;;;;;;;;;;;;;5077629;28;20326;-70
2022/12/06 10:54:23;;;;;;;;;;;;;;;;;;5095960;28;19913;-71
2022/12/06 10:56:49;;;;;;;;;;;;;;;;;;5096135;28;19997;-70
2022/12/06 10:59:15;;;;;;;;;;;;;;;;;;5094841;28;19913;-71
2022/12/06 11:01:44;;;;;;;;;;;;;;;;;;5092565;28;19912;-70
2022/12/06 11:04:10;;;;;;;;;;;;;;;;;;5094834;28;19912;-75
2022/12/06 11:06:36;;;;;;;;;;;;;;;;;;5095140;28;19922;-69
2022/12/06 11:09:02;;;;;;;;;;;;;;;;;;5095236;28;20002;-70
2022/12/06 11:11:28;;;;;;;;;;;;;;;;;;5076716;28;19943;-72
2022/12/06 11:13:54;;;;;;;;;;;;;;;;;;5094598;28;19922;-69
2022/12/06 11:16:20;;;;;;;;;;;;;;;;;;5095341;28;19987;-72
2022/12/06 11:18:46;;;;;;;;;;;;;;;;;;5076835;28;20336;-73
2022/12/06 11:21:12;;;;;;;;;;;;;;;;;;5095203;28;19961;-72
2022/12/06 11:23:38;;;;;;;;;;;;;;;;;;5075395;28;19912;-71
2022/12/06 11:26:05;;;;;;;;;;;;;;;;;;5076650;28;19912;-72
2022/12/06 11:28:31;;;;;;;;;;;;;;;;;;5086391;28;19994;-73
2022/12/06 11:31:02;;;;;;;;;;;;;;;;;;5093462;28;20539;-72
2022/12/06 11:33:28;;;;;;;;;;;;;;;;;;5094008;28;19914;-72
2022/12/06 11:35:54;;;;;;;;;;;;;;;;;;5077639;28;19908;-73
2022/12/06 11:38:20;;;;;;;;;;;;;;;;;;5095001;28;19919;-72
2022/12/06 11:40:46;;;;;;;;;;;;;;;;;;5092295;28;19909;-71
2022/12/06 11:43:12;;;;;;;;;;;;;;;;;;5094306;28;19947;-72
2022/12/06 11:45:42;;;;;;;;;;;;;;;;;;5093055;28;19944;-71
2022/12/06 11:48:08;;;;;;;;;;;;;;;;;;5072145;28;19939;-72
2022/12/06 11:50:34;;;;;;;;;;;;;;;;;;5070655;28;19913;-72
2022/12/06 11:53:01;;;;;;;;;;;;;;;;;;5070591;28;19912;-72
2022/12/06 11:55:27;;;;;;;;;;;;;;;;;;5070788;28;19909;-71
2022/12/06 11:57:53;;;;;;;;;;;;;;;;;;5070648;28;19912;-71
2022/12/06 12:00:19;;;;;;;;;;;;;;;;;;5070640;28;19908;-73
2022/12/06 12:02:45;;;;;;;;;;;;;;;;;;5068831;28;19908;-71
2022/12/06 12:05:11;;;;;;;;;;;;;;;;;;5072214;28;19977;-79
2022/12/06 12:07:37;;;;;;;;;;;;;;;;;;5069094;28;19924;-80
2022/12/06 12:10:03;;;;;;;;;;;;;;;;;;5069728;28;20532;-78
2022/12/06 12:13:42;;;;;;;;;;;;;;;;;;5072226;28;19912;-74
2022/12/06 12:15:15;;;;;;;;;;;;;;;;;;5072249;28;19909;-72
2022/12/06 12:17:41;;;;;;;;;;;;;;;;;;5070662;28;19920;-71
2022/12/06 12:20:07;;;;;;;;;;;;;;;;;;5072365;28;20288;-71
2022/12/06 12:22:32;;;;;;;;;;;;;;;;;;5073541;28;19912;-71
2022/12/06 12:24:58;;;;;;;;;;;;;;;;;;5073786;28;19912;-69
2022/12/06 12:27:24;;;;;;;;;;;;;;;;;;5071749;28;19932;-70
2022/12/06 12:29:50;;;;;;;;;;;;;;;;;;5073100;28;19957;-80
2022/12/06 12:32:16;;;;;;;;;;;;;;;;;;5072330;28;19916;-75
2022/12/06 12:34:42;;;;;;;;;;;;;;;;;;5073674;28;19959;-78
2022/12/06 12:37:08;;;;;;;;;;;;;;;;;;5073264;28;19912;-77
2022/12/06 12:39:34;;;;;;;;;;;;;;;;;;5071982;28;19913;-75
2022/12/06 12:42:00;;;;;;;;;;;;;;;;;;5066211;28;19943;-70
2022/12/06 12:44:26;;;;;;;;;;;;;;;;;;5072184;28;19944;-68
2022/12/06 12:46:52;;;;;;;;;;;;;;;;;;5070960;28;20399;-69
2022/12/06 12:49:18;;;;;;;;;;;;;;;;;;5071153;28;19913;-69
2022/12/06 12:51:44;;;;;;;;;;;;;;;;;;5070701;28;20379;-69
2022/12/06 12:54:10;;;;;;;;;;;;;;;;;;5071206;28;19937;-67
2022/12/06 12:56:36;;;;;;;;;;;;;;;;;;5070783;28;19908;-69
2022/12/06 12:59:02;;;;;;;;;;;;;;;;;;5069573;28;19908;-69
2022/12/06 13:01:28;;;;;;;;;;;;;;;;;;5070532;28;20022;-70
2022/12/06 13:03:54;;;;;;;;;;;;;;;;;;5070651;28;19913;-69
2022/12/06 13:06:20;;;;;;;;;;;;;;;;;;5072778;28;19913;-71
2022/12/06 13:08:46;;;;;;;;;;;;;;;;;;5072732;28;19919;-70
2022/12/06 13:11:12;;;;;;;;;;;;;;;;;;5070667;28;19912;-71
2022/12/06 13:13:37;;;;;;;;;;;;;;;;;;5072209;28;19912;-71
2022/12/06 13:16:03;;;;;;;;;;;;;;;;;;5072012;28;19926;-70
2022/12/06 13:18:29;;;;;;;;;;;;;;;;;;5071601;28;19912;-70
2022/12/06 13:20:55;;;;;;;;;;;;;;;;;;5072092;28;20353;-70
2022/12/06 13:23:22;;;;;;;;;;;;;;;;;;5072275;28;19962;-71
2022/12/06 13:25:48;;;;;;;;;;;;;;;;;;5071547;28;19908;-71
2022/12/06 13:28:14;;;;;;;;;;;;;;;;;;5072568;28;19909;-71
2022/12/06 13:30:40;;;;;;;;;;;;;;;;;;5072544;28;19916;-71
2022/12/06 13:33:07;;;;;;;;;;;;;;;;;;5071862;28;20019;-70
2022/12/06 13:35:33;;;;;;;;;;;;;;;;;;5070598;28;19912;-70
2022/12/06 13:37:59;;;;;;;;;;;;;;;;;;5071720;28;19912;-74
2022/12/06 13:40:25;;;;;;;;;;;;;;;;;;5072280;28;19954;-72
2022/12/06 13:42:51;;;;;;;;;;;;;;;;;;5073141;28;19908;-73
2022/12/06 13:45:17;;;;;;;;;;;;;;;;;;5072922;28;20273;-71
2022/12/06 13:47:45;;;;;;;;;;;;;;;;;;5085203;28;20221;-70
2022/12/06 13:50:12;;;;;;;;;;;;;;;;;;5090509;28;19908;-73
2022/12/06 13:52:38;;;;;;;;;;;;;;;;;;5090502;28;19954;-73
2022/12/06 13:55:04;;;;;;;;;;;;;;;;;;5090117;28;19912;-70
2022/12/06 13:57:30;;;;;;;;;;;;;;;;;;5090370;28;20023;-72
2022/12/06 13:59:57;;;;;;;;;;;;;;;;;;5090575;28;19961;-69
2022/12/06 14:02:22;;;;;;;;;;;;;;;;;;5072335;28;19947;-72
2022/12/06 14:04:48;;;;;;;;;;;;;;;;;;5091524;28;19958;-69
2022/12/06 14:07:15;;;;;;;;;;;;;;;;;;5073814;28;19917;-70
2022/12/06 14:09:41;;;;;;;;;;;;;;;;;;5092879;28;19954;-70
2022/12/06 14:12:07;;;;;;;;;;;;;;;;;;5093165;28;19916;-70
2022/12/06 14:14:33;;;;;;;;;;;;;;;;;;5092498;28;19918;-71
2022/12/06 14:16:59;;;;;;;;;;;;;;;;;;5092995;28;19912;-70
2022/12/06 14:19:25;;;;;;;;;;;;;;;;;;5092922;28;19908;-70
2022/12/06 14:21:51;;;;;;;;;;;;;;;;;;5092710;28;19923;-70
2022/12/06 14:24:16;;;;;;;;;;;;;;;;;;5075321;28;20370;-70
2022/12/06 14:26:42;;;;;;;;;;;;;;;;;;5093137;28;19963;-70
2022/12/06 14:29:08;;;;;;;;;;;;;;;;;;5091586;28;20394;-70
2022/12/06 14:31:34;;;;;;;;;;;;;;;;;;5093144;28;20343;-69
2022/12/06 14:34:00;;;;;;;;;;;;;;;;;;5092177;28;19981;-70
2022/12/06 14:36:26;;;;;;;;;;;;;;;;;;5074784;28;20364;-70
2022/12/06 14:38:52;;;;;;;;;;;;;;;;;;5092243;28;19999;-70
2022/12/06 14:44:03;;;;;;;;;;;;;;;;;;5092945;28;19969;-69
2022/12/06 14:46:29;;;;;;;;;;;;;;;;;;5092916;28;19920;-69
2022/12/06 14:51:39;;;;;;;;;;;;;;;;;;5096818;28;20275;-70
2022/12/06 14:54:05;;;;;;;;;;;;;;;;;;5096975;28;20002;-70
2022/12/06 14:56:31;;;;;;;;;;;;;;;;;;5095675;28;19912;-70
2022/12/06 14:58:57;;;;;;;;;;;;;;;;;;5096403;28;19908;-70
2022/12/06 15:01:23;;;;;;;;;;;;;;;;;;5096809;28;19964;-71
2022/12/06 15:03:49;;;;;;;;;;;;;;;;;;5078204;28;19923;-70
2022/12/06 15:06:15;;;;;;;;;;;;;;;;;;5096657;28;20364;-70
2022/12/06 15:08:41;;;;;;;;;;;;;;;;;;5097077;28;19944;-70
2022/12/06 15:11:07;;;;;;;;;;;;;;;;;;5078609;28;20426;-71
2022/12/06 15:13:33;;;;;;;;;;;;;;;;;;5078429;28;19954;-70
2022/12/06 15:15:59;;;;;;;;;;;;;;;;;;5078372;28;19915;-70
2022/12/06 15:18:25;;;;;;;;;;;;;;;;;;5096043;28;20338;-70
2022/12/06 15:20:52;;;;;;;;;;;;;;;;;;5096420;28;19908;-70
2022/12/06 15:23:18;;;;;;;;;;;;;;;;;;5078207;28;19991;-70
2022/12/06 15:25:44;;;;;;;;;;;;;;;;;;5095985;28;20420;-71
2022/12/06 15:28:10;;;;;;;;;;;;;;;;;;5096183;28;19916;-72
2022/12/06 15:30:36;;;;;;;;;;;;;;;;;;5096313;28;19908;-71
2022/12/06 15:33:02;;;;;;;;;;;;;;;;;;5095769;28;19915;-70
2022/12/06 15:35:28;;;;;;;;;;;;;;;;;;5096508;28;19999;-70
2022/12/06 15:37:53;;;;;;;;;;;;;;;;;;5096005;28;19912;-71
2022/12/06 15:40:19;;;;;;;;;;;;;;;;;;5095631;28;19948;-70
2022/12/06 15:42:45;;;;;;;;;;;;;;;;;;5095963;28;19908;-71
2022/12/06 15:45:11;;;;;;;;;;;;;;;;;;5077804;28;19908;-71
2022/12/06 15:47:37;;;;;;;;;;;;;;;;;;5077181;28;19927;-70
2022/12/06 15:50:03;;;;;;;;;;;;;;;;;;5095815;28;19912;-71
2022/12/06 15:52:29;;;;;;;;;;;;;;;;;;5077380;28;19908;-70
2022/12/06 15:54:56;;;;;;;;;;;;;;;;;;5095705;28;19916;-70
2022/12/06 15:57:22;;;;;;;;;;;;;;;;;;5095810;28;20429;-70
2022/12/06 15:59:48;;;;;;;;;;;;;;;;;;5095207;28;19912;-71
2022/12/06 16:02:14;;;;;;;;;;;;;;;;;;5095661;28;19915;-70
2022/12/06 16:04:40;;;;;;;;;;;;;;;;;;5095616;28;19958;-70
2022/12/06 16:07:06;;;;;;;;;;;;;;;;;;5095003;28;19997;-70
2022/12/06 16:09:32;;;;;;;;;;;;;;;;;;5095428;28;20381;-70
2022/12/06 16:11:58;;;;;;;;;;;;;;;;;;5095409;28;20019;-71
2022/12/06 16:14:24;;;;;;;;;;;;;;;;;;5094946;28;19912;-71
2022/12/06 16:16:50;;;;;;;;;;;;;;;;;;5077296;28;19948;-70
2022/12/06 16:19:15;;;;;;;;;;;;;;;;;;5077114;28;19934;-71
2022/12/06 16:21:41;;;;;;;;;;;;;;;;;;5094907;28;19915;-70
2022/12/06 16:24:08;;;;;;;;;;;;;;;;;;5095254;28;20353;-70
2022/12/06 16:26:34;;;;;;;;;;;;;;;;;;5095579;28;19958;-71
2022/12/06 16:29:00;;;;;;;;;;;;;;;;;;5094756;28;19936;-71
2022/12/06 16:31:26;;;;;;;;;;;;;;;;;;5095164;28;20225;-72
2022/12/06 16:33:52;;;;;;;;;;;;;;;;;;5095353;28;19915;-71
2022/12/06 16:36:18;;;;;;;;;;;;;;;;;;5094600;28;19909;-71
2022/12/06 16:38:44;;;;;;;;;;;;;;;;;;5094999;28;19916;-71
2022/12/06 16:41:10;;;;;;;;;;;;;;;;;;5094920;28;19908;-71
2022/12/06 16:43:36;;;;;;;;;;;;;;;;;;5094457;28;19915;-71
2022/12/06 16:46:04;;;;;;;;;;;;;;;;;;5094620;28;20003;-71
2022/12/06 16:48:30;;;;;;;;;;;;;;;;;;5095073;28;19912;-71
2022/12/06 16:50:55;;;;;;;;;;;;;;;;;;5094278;28;19917;-71
2022/12/06 16:53:21;;;;;;;;;;;;;;;;;;5094702;28;19909;-72
2022/12/06 16:55:48;;;;;;;;;;;;;;;;;;5094289;28;19961;-72
2022/12/06 16:58:16;;;;;;;;;;;;;;;;;;5094625;28;19958;-71
2022/12/06 17:00:42;;;;;;;;;;;;;;;;;;5094820;28;19909;-72
2022/12/06 17:03:08;;;;;;;;;;;;;;;;;;5094381;28;19974;-72
2022/12/06 17:05:34;;;;;;;;;;;;;;;;;;5094586;28;20003;-72
2022/12/06 17:08:00;;;;;;;;;;;;;;;;;;5094449;28;19916;-71
2022/12/06 17:10:26;;;;;;;;;;;;;;;;;;5094092;28;19909;-71
2022/12/06 17:12:52;;;;;;;;;;;;;;;;;;5093619;28;19934;-71